sensor_id;sensor_type;location;lat;lon;timestamp;P1;durP1;ratioP1;P2;durP2;ratioP2
64907;SDS011;69061;52.236;5.188;2023-08-24T00:01:44;9.52;;;6.93;;
64907;SDS011;69061;52.236;5.188;2023-08-24T00:04:11;12.27;;;7.35;;
64907;SDS011;69061;52.236;5.188;2023-08-24T00:06:45;12.20;;;7.40;;
64907;SDS011;69061;52.236;5.188;2023-08-24T00:09:12;13.00;;;7.78;;
64907;SDS011;69061;52.236;5.188;2023-08-24T00:11:40;13.38;;;7.05;;
64907;SDS011;69061;52.236;5.188;2023-08-24T00:14:07;10.38;;;6.88;;
64907;SDS011;69061;52.236;5.188;2023-08-24T00:16:35;12.82;;;7.53;;
64907;SDS011;69061;52.236;5.188;2023-08-24T00:19:03;16.40;;;8.52;;
64907;SDS011;69061;52.236;5.188;2023-08-24T00:21:30;15.88;;;7.18;;
64907;SDS011;69061;52.236;5.188;2023-08-24T00:23:57;16.63;;;8.43;;
64907;SDS011;69061;52.236;5.188;2023-08-24T00:26:26;15.30;;;8.18;;
64907;SDS011;69061;52.236;5.188;2023-08-24T00:28:54;15.90;;;7.30;;
64907;SDS011;69061;52.236;5.188;2023-08-24T00:31:21;12.80;;;8.43;;
64907;SDS011;69061;52.236;5.188;2023-08-24T00:33:48;12.50;;;8.02;;
64907;SDS011;69061;52.236;5.188;2023-08-24T00:36:18;15.07;;;8.10;;
64907;SDS011;69061;52.236;5.188;2023-08-24T00:38:45;14.82;;;7.78;;
64907;SDS011;69061;52.236;5.188;2023-08-24T00:41:16;11.60;;;7.82;;
64907;SDS011;69061;52.236;5.188;2023-08-24T00:43:42;17.70;;;9.05;;
64907;SDS011;69061;52.236;5.188;2023-08-24T00:46:09;15.07;;;8.07;;
64907;SDS011;69061;52.236;5.188;2023-08-24T00:48:36;18.17;;;7.97;;
64907;SDS011;69061;52.236;5.188;2023-08-24T00:51:03;12.48;;;8.07;;
64907;SDS011;69061;52.236;5.188;2023-08-24T00:53:32;13.82;;;9.27;;
64907;SDS011;69061;52.236;5.188;2023-08-24T00:55:59;12.05;;;8.40;;
64907;SDS011;69061;52.236;5.188;2023-08-24T00:58:27;16.20;;;7.88;;
64907;SDS011;69061;52.236;5.188;2023-08-24T01:00:54;14.02;;;7.88;;
64907;SDS011;69061;52.236;5.188;2023-08-24T01:03:23;16.55;;;8.60;;
64907;SDS011;69061;52.236;5.188;2023-08-24T01:05:50;17.80;;;9.68;;
64907;SDS011;69061;52.236;5.188;2023-08-24T01:08:18;16.95;;;8.48;;
64907;SDS011;69061;52.236;5.188;2023-08-24T01:10:48;15.77;;;8.88;;
64907;SDS011;69061;52.236;5.188;2023-08-24T01:13:25;14.45;;;9.10;;
64907;SDS011;69061;52.236;5.188;2023-08-24T01:15:58;14.98;;;9.52;;
64907;SDS011;69061;52.236;5.188;2023-08-24T01:18:31;12.75;;;8.10;;
64907;SDS011;69061;52.236;5.188;2023-08-24T01:21:01;20.10;;;10.27;;
64907;SDS011;69061;52.236;5.188;2023-08-24T01:23:32;16.55;;;9.52;;
64907;SDS011;69061;52.236;5.188;2023-08-24T01:26:09;17.25;;;8.95;;
64907;SDS011;69061;52.236;5.188;2023-08-24T01:28:38;14.65;;;8.85;;
64907;SDS011;69061;52.236;5.188;2023-08-24T01:31:06;18.00;;;9.43;;
64907;SDS011;69061;52.236;5.188;2023-08-24T01:33:34;10.80;;;7.47;;
64907;SDS011;69061;52.236;5.188;2023-08-24T01:36:01;16.92;;;9.73;;
64907;SDS011;69061;52.236;5.188;2023-08-24T01:38:28;13.38;;;10.00;;
64907;SDS011;69061;52.236;5.188;2023-08-24T01:40:59;16.70;;;10.65;;
64907;SDS011;69061;52.236;5.188;2023-08-24T01:43:32;20.35;;;10.48;;
64907;SDS011;69061;52.236;5.188;2023-08-24T01:46:03;17.65;;;10.52;;
64907;SDS011;69061;52.236;5.188;2023-08-24T01:48:32;18.55;;;10.48;;
64907;SDS011;69061;52.236;5.188;2023-08-24T01:51:00;14.70;;;9.32;;
64907;SDS011;69061;52.236;5.188;2023-08-24T01:53:31;15.95;;;9.90;;
64907;SDS011;69061;52.236;5.188;2023-08-24T01:55:59;22.40;;;10.60;;
64907;SDS011;69061;52.236;5.188;2023-08-24T01:58:27;14.38;;;10.38;;
64907;SDS011;69061;52.236;5.188;2023-08-24T02:00:55;23.30;;;11.52;;
64907;SDS011;69061;52.236;5.188;2023-08-24T02:03:21;17.60;;;9.95;;
64907;SDS011;69061;52.236;5.188;2023-08-24T02:05:48;16.88;;;10.93;;
64907;SDS011;69061;52.236;5.188;2023-08-24T02:08:16;19.13;;;11.05;;
64907;SDS011;69061;52.236;5.188;2023-08-24T02:10:44;16.15;;;10.13;;
64907;SDS011;69061;52.236;5.188;2023-08-24T02:13:11;15.25;;;10.98;;
64907;SDS011;69061;52.236;5.188;2023-08-24T02:15:38;20.73;;;12.55;;
64907;SDS011;69061;52.236;5.188;2023-08-24T02:18:07;15.73;;;8.73;;
64907;SDS011;69061;52.236;5.188;2023-08-24T02:20:36;17.15;;;11.40;;
64907;SDS011;69061;52.236;5.188;2023-08-24T02:23:05;14.35;;;8.93;;
64907;SDS011;69061;52.236;5.188;2023-08-24T02:25:32;19.88;;;11.73;;
64907;SDS011;69061;52.236;5.188;2023-08-24T02:27:59;18.73;;;10.93;;
64907;SDS011;69061;52.236;5.188;2023-08-24T02:30:26;16.88;;;11.32;;
64907;SDS011;69061;52.236;5.188;2023-08-24T02:32:53;23.73;;;12.57;;
64907;SDS011;69061;52.236;5.188;2023-08-24T02:35:21;16.10;;;9.13;;
64907;SDS011;69061;52.236;5.188;2023-08-24T02:37:48;20.08;;;10.90;;
64907;SDS011;69061;52.236;5.188;2023-08-24T02:40:15;18.48;;;12.43;;
64907;SDS011;69061;52.236;5.188;2023-08-24T02:42:42;17.27;;;10.70;;
64907;SDS011;69061;52.236;5.188;2023-08-24T02:45:09;17.50;;;9.55;;
64907;SDS011;69061;52.236;5.188;2023-08-24T02:47:36;16.60;;;11.13;;
64907;SDS011;69061;52.236;5.188;2023-08-24T02:50:04;17.23;;;10.13;;
64907;SDS011;69061;52.236;5.188;2023-08-24T02:52:34;17.15;;;9.43;;
64907;SDS011;69061;52.236;5.188;2023-08-24T02:55:01;18.45;;;12.38;;
64907;SDS011;69061;52.236;5.188;2023-08-24T02:57:28;17.42;;;10.43;;
64907;SDS011;69061;52.236;5.188;2023-08-24T02:59:56;18.10;;;11.63;;
64907;SDS011;69061;52.236;5.188;2023-08-24T03:02:22;19.70;;;12.52;;
64907;SDS011;69061;52.236;5.188;2023-08-24T03:04:49;13.95;;;10.18;;
64907;SDS011;69061;52.236;5.188;2023-08-24T03:07:17;24.58;;;11.25;;
64907;SDS011;69061;52.236;5.188;2023-08-24T03:09:46;16.95;;;9.55;;
64907;SDS011;69061;52.236;5.188;2023-08-24T03:12:13;15.73;;;10.43;;
64907;SDS011;69061;52.236;5.188;2023-08-24T03:14:40;21.27;;;10.95;;
64907;SDS011;69061;52.236;5.188;2023-08-24T03:17:07;15.50;;;10.02;;
64907;SDS011;69061;52.236;5.188;2023-08-24T03:19:34;21.05;;;12.52;;
64907;SDS011;69061;52.236;5.188;2023-08-24T03:22:02;15.43;;;10.27;;
64907;SDS011;69061;52.236;5.188;2023-08-24T03:24:29;21.13;;;11.77;;
64907;SDS011;69061;52.236;5.188;2023-08-24T03:26:57;20.63;;;12.40;;
64907;SDS011;69061;52.236;5.188;2023-08-24T03:29:24;22.70;;;12.40;;
64907;SDS011;69061;52.236;5.188;2023-08-24T03:31:51;19.35;;;11.18;;
64907;SDS011;69061;52.236;5.188;2023-08-24T03:34:18;18.15;;;11.10;;
64907;SDS011;69061;52.236;5.188;2023-08-24T03:36:45;20.15;;;11.02;;
64907;SDS011;69061;52.236;5.188;2023-08-24T03:39:13;19.25;;;11.88;;
64907;SDS011;69061;52.236;5.188;2023-08-24T03:41:41;17.77;;;11.07;;
64907;SDS011;69061;52.236;5.188;2023-08-24T03:44:10;18.92;;;11.95;;
64907;SDS011;69061;52.236;5.188;2023-08-24T03:46:37;19.00;;;11.27;;
64907;SDS011;69061;52.236;5.188;2023-08-24T03:49:04;18.85;;;12.52;;
64907;SDS011;69061;52.236;5.188;2023-08-24T03:51:32;16.75;;;11.73;;
64907;SDS011;69061;52.236;5.188;2023-08-24T03:53:58;14.50;;;10.05;;
64907;SDS011;69061;52.236;5.188;2023-08-24T03:56:26;17.45;;;11.63;;
64907;SDS011;69061;52.236;5.188;2023-08-24T03:58:52;19.30;;;10.70;;
64907;SDS011;69061;52.236;5.188;2023-08-24T04:01:21;24.15;;;12.73;;
64907;SDS011;69061;52.236;5.188;2023-08-24T04:03:48;24.63;;;12.35;;
64907;SDS011;69061;52.236;5.188;2023-08-24T04:06:17;18.80;;;12.88;;
64907;SDS011;69061;52.236;5.188;2023-08-24T04:08:44;19.40;;;13.63;;
64907;SDS011;69061;52.236;5.188;2023-08-24T04:11:11;20.67;;;13.32;;
64907;SDS011;69061;52.236;5.188;2023-08-24T04:13:37;20.70;;;12.25;;
64907;SDS011;69061;52.236;5.188;2023-08-24T04:16:04;17.00;;;11.00;;
64907;SDS011;69061;52.236;5.188;2023-08-24T04:18:34;20.17;;;12.43;;
64907;SDS011;69061;52.236;5.188;2023-08-24T04:21:01;19.42;;;12.77;;
64907;SDS011;69061;52.236;5.188;2023-08-24T04:23:28;20.40;;;13.40;;
64907;SDS011;69061;52.236;5.188;2023-08-24T04:25:56;17.30;;;13.45;;
64907;SDS011;69061;52.236;5.188;2023-08-24T04:28:24;19.20;;;12.02;;
64907;SDS011;69061;52.236;5.188;2023-08-24T04:30:51;18.25;;;12.45;;
64907;SDS011;69061;52.236;5.188;2023-08-24T04:33:18;18.40;;;13.02;;
64907;SDS011;69061;52.236;5.188;2023-08-24T04:35:50;17.10;;;11.75;;
64907;SDS011;69061;52.236;5.188;2023-08-24T04:38:17;17.45;;;12.57;;
64907;SDS011;69061;52.236;5.188;2023-08-24T04:40:45;21.02;;;13.52;;
64907;SDS011;69061;52.236;5.188;2023-08-24T04:43:13;21.90;;;12.02;;
64907;SDS011;69061;52.236;5.188;2023-08-24T04:45:40;17.65;;;12.27;;
64907;SDS011;69061;52.236;5.188;2023-08-24T04:48:07;16.50;;;12.80;;
64907;SDS011;69061;52.236;5.188;2023-08-24T04:50:34;14.65;;;10.70;;
64907;SDS011;69061;52.236;5.188;2023-08-24T04:53:08;13.85;;;9.02;;
64907;SDS011;69061;52.236;5.188;2023-08-24T04:55:37;15.52;;;10.50;;
64907;SDS011;69061;52.236;5.188;2023-08-24T04:58:04;18.80;;;13.30;;
64907;SDS011;69061;52.236;5.188;2023-08-24T05:00:31;21.40;;;11.30;;
64907;SDS011;69061;52.236;5.188;2023-08-24T05:03:00;15.60;;;9.20;;
64907;SDS011;69061;52.236;5.188;2023-08-24T05:05:28;11.10;;;7.18;;
64907;SDS011;69061;52.236;5.188;2023-08-24T05:07:55;10.43;;;6.15;;
64907;SDS011;69061;52.236;5.188;2023-08-24T05:10:23;13.68;;;7.57;;
64907;SDS011;69061;52.236;5.188;2023-08-24T05:12:50;22.65;;;11.95;;
64907;SDS011;69061;52.236;5.188;2023-08-24T05:15:18;19.08;;;9.73;;
64907;SDS011;69061;52.236;5.188;2023-08-24T05:17:45;27.42;;;12.38;;
64907;SDS011;69061;52.236;5.188;2023-08-24T05:20:13;18.45;;;12.15;;
64907;SDS011;69061;52.236;5.188;2023-08-24T05:22:41;22.60;;;13.63;;
64907;SDS011;69061;52.236;5.188;2023-08-24T05:25:08;18.70;;;12.52;;
64907;SDS011;69061;52.236;5.188;2023-08-24T05:27:38;15.77;;;11.70;;
64907;SDS011;69061;52.236;5.188;2023-08-24T05:30:07;18.10;;;12.23;;
64907;SDS011;69061;52.236;5.188;2023-08-24T05:32:35;18.35;;;9.98;;
64907;SDS011;69061;52.236;5.188;2023-08-24T05:35:04;17.88;;;11.32;;
64907;SDS011;69061;52.236;5.188;2023-08-24T05:37:31;24.15;;;11.23;;
64907;SDS011;69061;52.236;5.188;2023-08-24T05:39:58;20.67;;;11.95;;
64907;SDS011;69061;52.236;5.188;2023-08-24T05:42:26;18.55;;;11.25;;
64907;SDS011;69061;52.236;5.188;2023-08-24T05:44:55;17.65;;;11.38;;
64907;SDS011;69061;52.236;5.188;2023-08-24T05:47:24;19.38;;;9.65;;
64907;SDS011;69061;52.236;5.188;2023-08-24T05:49:51;18.92;;;11.25;;
64907;SDS011;69061;52.236;5.188;2023-08-24T05:52:18;14.55;;;9.45;;
64907;SDS011;69061;52.236;5.188;2023-08-24T05:54:45;20.52;;;11.07;;
64907;SDS011;69061;52.236;5.188;2023-08-24T05:57:12;16.85;;;8.45;;
64907;SDS011;69061;52.236;5.188;2023-08-24T05:59:39;19.77;;;9.73;;
64907;SDS011;69061;52.236;5.188;2023-08-24T06:02:09;15.48;;;10.27;;
64907;SDS011;69061;52.236;5.188;2023-08-24T06:04:35;18.30;;;10.25;;
64907;SDS011;69061;52.236;5.188;2023-08-24T06:07:02;19.08;;;10.30;;
64907;SDS011;69061;52.236;5.188;2023-08-24T06:09:30;17.70;;;10.32;;
64907;SDS011;69061;52.236;5.188;2023-08-24T06:11:56;19.60;;;10.43;;
64907;SDS011;69061;52.236;5.188;2023-08-24T06:14:24;19.08;;;10.38;;
64907;SDS011;69061;52.236;5.188;2023-08-24T06:16:51;20.50;;;13.50;;
64907;SDS011;69061;52.236;5.188;2023-08-24T06:19:22;18.60;;;9.98;;
64907;SDS011;69061;52.236;5.188;2023-08-24T06:21:49;17.73;;;9.93;;
64907;SDS011;69061;52.236;5.188;2023-08-24T06:24:19;17.58;;;10.10;;
64907;SDS011;69061;52.236;5.188;2023-08-24T06:26:46;14.48;;;9.65;;
64907;SDS011;69061;52.236;5.188;2023-08-24T06:29:13;18.13;;;11.55;;
64907;SDS011;69061;52.236;5.188;2023-08-24T06:31:41;15.05;;;9.88;;
64907;SDS011;69061;52.236;5.188;2023-08-24T06:34:07;17.02;;;10.73;;
64907;SDS011;69061;52.236;5.188;2023-08-24T06:36:36;20.95;;;11.82;;
64907;SDS011;69061;52.236;5.188;2023-08-24T06:39:03;23.60;;;11.85;;
64907;SDS011;69061;52.236;5.188;2023-08-24T06:41:32;21.42;;;11.13;;
64907;SDS011;69061;52.236;5.188;2023-08-24T06:43:59;22.38;;;12.95;;
64907;SDS011;69061;52.236;5.188;2023-08-24T06:46:26;14.93;;;9.70;;
64907;SDS011;69061;52.236;5.188;2023-08-24T06:48:52;13.43;;;9.27;;
64907;SDS011;69061;52.236;5.188;2023-08-24T06:51:19;20.65;;;14.05;;
64907;SDS011;69061;52.236;5.188;2023-08-24T06:53:48;19.95;;;12.38;;
64907;SDS011;69061;52.236;5.188;2023-08-24T06:56:15;17.88;;;12.23;;
64907;SDS011;69061;52.236;5.188;2023-08-24T06:58:42;17.70;;;12.02;;
64907;SDS011;69061;52.236;5.188;2023-08-24T07:01:10;30.30;;;14.57;;
64907;SDS011;69061;52.236;5.188;2023-08-24T07:03:37;24.75;;;14.02;;
64907;SDS011;69061;52.236;5.188;2023-08-24T07:06:05;23.60;;;15.55;;
64907;SDS011;69061;52.236;5.188;2023-08-24T07:08:32;23.38;;;12.85;;
64907;SDS011;69061;52.236;5.188;2023-08-24T07:11:00;21.00;;;13.73;;
64907;SDS011;69061;52.236;5.188;2023-08-24T07:13:27;25.30;;;14.57;;
64907;SDS011;69061;52.236;5.188;2023-08-24T07:15:54;23.55;;;14.23;;
64907;SDS011;69061;52.236;5.188;2023-08-24T07:18:22;21.55;;;14.20;;
64907;SDS011;69061;52.236;5.188;2023-08-24T07:20:51;24.48;;;12.85;;
64907;SDS011;69061;52.236;5.188;2023-08-24T07:23:18;18.98;;;13.13;;
64907;SDS011;69061;52.236;5.188;2023-08-24T07:25:44;23.15;;;14.75;;
64907;SDS011;69061;52.236;5.188;2023-08-24T07:28:12;29.10;;;14.73;;
64907;SDS011;69061;52.236;5.188;2023-08-24T07:30:41;24.77;;;13.43;;
64907;SDS011;69061;52.236;5.188;2023-08-24T07:33:08;23.38;;;15.00;;
64907;SDS011;69061;52.236;5.188;2023-08-24T07:35:35;22.30;;;15.63;;
64907;SDS011;69061;52.236;5.188;2023-08-24T07:38:02;26.88;;;16.33;;
64907;SDS011;69061;52.236;5.188;2023-08-24T07:40:30;21.80;;;15.82;;
64907;SDS011;69061;52.236;5.188;2023-08-24T07:42:58;27.52;;;16.40;;
64907;SDS011;69061;52.236;5.188;2023-08-24T07:45:27;22.73;;;14.90;;
64907;SDS011;69061;52.236;5.188;2023-08-24T07:47:54;22.75;;;14.07;;
64907;SDS011;69061;52.236;5.188;2023-08-24T07:50:21;36.83;;;16.10;;
64907;SDS011;69061;52.236;5.188;2023-08-24T07:52:48;27.42;;;16.17;;
64907;SDS011;69061;52.236;5.188;2023-08-24T07:55:15;23.30;;;15.18;;
64907;SDS011;69061;52.236;5.188;2023-08-24T07:57:42;20.75;;;14.80;;
64907;SDS011;69061;52.236;5.188;2023-08-24T08:00:10;27.55;;;16.67;;
64907;SDS011;69061;52.236;5.188;2023-08-24T08:02:40;27.00;;;15.93;;
64907;SDS011;69061;52.236;5.188;2023-08-24T08:05:07;25.23;;;15.27;;
64907;SDS011;69061;52.236;5.188;2023-08-24T08:07:36;25.05;;;17.25;;
64907;SDS011;69061;52.236;5.188;2023-08-24T08:10:04;21.33;;;15.45;;
64907;SDS011;69061;52.236;5.188;2023-08-24T08:12:31;21.15;;;16.48;;
64907;SDS011;69061;52.236;5.188;2023-08-24T08:14:59;26.35;;;16.65;;
64907;SDS011;69061;52.236;5.188;2023-08-24T08:17:26;24.08;;;16.60;;
64907;SDS011;69061;52.236;5.188;2023-08-24T08:19:56;35.47;;;19.08;;
64907;SDS011;69061;52.236;5.188;2023-08-24T08:22:23;26.77;;;16.95;;
64907;SDS011;69061;52.236;5.188;2023-08-24T08:24:51;25.08;;;15.82;;
64907;SDS011;69061;52.236;5.188;2023-08-24T08:27:23;18.80;;;11.57;;
64907;SDS011;69061;52.236;5.188;2023-08-24T08:29:50;19.67;;;9.93;;
64907;SDS011;69061;52.236;5.188;2023-08-24T08:32:17;17.05;;;9.70;;
64907;SDS011;69061;52.236;5.188;2023-08-24T08:34:43;27.63;;;16.67;;
64907;SDS011;69061;52.236;5.188;2023-08-24T08:37:12;25.60;;;17.30;;
64907;SDS011;69061;52.236;5.188;2023-08-24T08:39:39;20.35;;;15.05;;
64907;SDS011;69061;52.236;5.188;2023-08-24T08:42:06;19.20;;;10.82;;
64907;SDS011;69061;52.236;5.188;2023-08-24T08:44:38;24.08;;;15.80;;
64907;SDS011;69061;52.236;5.188;2023-08-24T08:47:05;18.77;;;11.35;;
64907;SDS011;69061;52.236;5.188;2023-08-24T08:49:35;28.02;;;14.95;;
64907;SDS011;69061;52.236;5.188;2023-08-24T08:52:03;19.02;;;13.57;;
64907;SDS011;69061;52.236;5.188;2023-08-24T08:54:33;23.63;;;15.68;;
64907;SDS011;69061;52.236;5.188;2023-08-24T08:57:02;23.83;;;14.93;;
64907;SDS011;69061;52.236;5.188;2023-08-24T08:59:30;22.67;;;13.55;;
64907;SDS011;69061;52.236;5.188;2023-08-24T09:01:58;18.10;;;13.73;;
64907;SDS011;69061;52.236;5.188;2023-08-24T09:04:27;22.55;;;14.75;;
64907;SDS011;69061;52.236;5.188;2023-08-24T09:06:55;20.20;;;15.80;;
64907;SDS011;69061;52.236;5.188;2023-08-24T09:09:23;21.50;;;12.13;;
64907;SDS011;69061;52.236;5.188;2023-08-24T09:11:52;17.02;;;10.60;;
64907;SDS011;69061;52.236;5.188;2023-08-24T09:14:19;18.90;;;11.13;;
64907;SDS011;69061;52.236;5.188;2023-08-24T09:16:46;19.55;;;11.93;;
64907;SDS011;69061;52.236;5.188;2023-08-24T09:19:13;15.65;;;9.48;;
64907;SDS011;69061;52.236;5.188;2023-08-24T09:21:40;21.08;;;14.20;;
64907;SDS011;69061;52.236;5.188;2023-08-24T09:24:07;19.40;;;13.90;;
64907;SDS011;69061;52.236;5.188;2023-08-24T09:26:35;26.90;;;16.63;;
64907;SDS011;69061;52.236;5.188;2023-08-24T09:29:12;21.30;;;14.93;;
64907;SDS011;69061;52.236;5.188;2023-08-24T09:31:40;20.13;;;14.57;;
64907;SDS011;69061;52.236;5.188;2023-08-24T09:34:09;15.07;;;10.43;;
64907;SDS011;69061;52.236;5.188;2023-08-24T09:36:36;23.20;;;14.18;;
64907;SDS011;69061;52.236;5.188;2023-08-24T09:39:04;17.10;;;10.07;;
64907;SDS011;69061;52.236;5.188;2023-08-24T09:41:38;22.88;;;14.48;;
64907;SDS011;69061;52.236;5.188;2023-08-24T09:44:05;17.80;;;9.80;;
64907;SDS011;69061;52.236;5.188;2023-08-24T09:46:35;16.40;;;11.02;;
64907;SDS011;69061;52.236;5.188;2023-08-24T09:49:04;20.95;;;14.68;;
64907;SDS011;69061;52.236;5.188;2023-08-24T09:51:31;20.15;;;14.15;;
64907;SDS011;69061;52.236;5.188;2023-08-24T09:54:01;24.70;;;15.23;;
64907;SDS011;69061;52.236;5.188;2023-08-24T09:56:34;22.73;;;16.38;;
64907;SDS011;69061;52.236;5.188;2023-08-24T09:59:05;21.52;;;15.25;;
64907;SDS011;69061;52.236;5.188;2023-08-24T10:01:39;25.05;;;15.75;;
64907;SDS011;69061;52.236;5.188;2023-08-24T10:04:08;21.35;;;13.57;;
64907;SDS011;69061;52.236;5.188;2023-08-24T10:06:37;20.98;;;13.70;;
64907;SDS011;69061;52.236;5.188;2023-08-24T10:09:06;20.08;;;12.80;;
64907;SDS011;69061;52.236;5.188;2023-08-24T10:11:34;16.67;;;13.10;;
64907;SDS011;69061;52.236;5.188;2023-08-24T10:14:08;22.05;;;14.27;;
64907;SDS011;69061;52.236;5.188;2023-08-24T10:16:43;21.10;;;13.43;;
64907;SDS011;69061;52.236;5.188;2023-08-24T10:19:12;24.60;;;11.77;;
64907;SDS011;69061;52.236;5.188;2023-08-24T10:21:40;23.02;;;13.10;;
64907;SDS011;69061;52.236;5.188;2023-08-24T10:24:08;16.83;;;12.20;;
64907;SDS011;69061;52.236;5.188;2023-08-24T10:26:37;16.00;;;11.38;;
64907;SDS011;69061;52.236;5.188;2023-08-24T10:29:06;18.80;;;10.30;;
64907;SDS011;69061;52.236;5.188;2023-08-24T10:31:33;18.30;;;11.73;;
64907;SDS011;69061;52.236;5.188;2023-08-24T10:34:04;21.00;;;11.10;;
64907;SDS011;69061;52.236;5.188;2023-08-24T10:36:32;17.63;;;11.32;;
64907;SDS011;69061;52.236;5.188;2023-08-24T10:39:02;16.85;;;10.43;;
64907;SDS011;69061;52.236;5.188;2023-08-24T10:41:45;16.70;;;10.52;;
64907;SDS011;69061;52.236;5.188;2023-08-24T10:44:19;17.48;;;10.70;;
64907;SDS011;69061;52.236;5.188;2023-08-24T10:49:43;20.77;;;10.35;;
64907;SDS011;69061;52.236;5.188;2023-08-24T10:52:18;20.92;;;11.13;;
64907;SDS011;69061;52.236;5.188;2023-08-24T10:54:46;18.23;;;11.07;;
64907;SDS011;69061;52.236;5.188;2023-08-24T10:57:17;17.42;;;12.32;;
64907;SDS011;69061;52.236;5.188;2023-08-24T10:59:45;16.08;;;11.73;;
64907;SDS011;69061;52.236;5.188;2023-08-24T11:02:24;16.55;;;10.80;;
64907;SDS011;69061;52.236;5.188;2023-08-24T11:05:05;19.02;;;11.20;;
64907;SDS011;69061;52.236;5.188;2023-08-24T11:07:34;21.67;;;11.87;;
64907;SDS011;69061;52.236;5.188;2023-08-24T11:10:10;19.70;;;11.98;;
64907;SDS011;69061;52.236;5.188;2023-08-24T11:15:35;21.98;;;12.25;;
64907;SDS011;69061;52.236;5.188;2023-08-24T11:18:11;22.52;;;13.85;;
64907;SDS011;69061;52.236;5.188;2023-08-24T11:20:40;18.63;;;12.75;;
64907;SDS011;69061;52.236;5.188;2023-08-24T11:23:10;25.27;;;13.85;;
64907;SDS011;69061;52.236;5.188;2023-08-24T11:25:37;23.95;;;13.80;;
64907;SDS011;69061;52.236;5.188;2023-08-24T11:28:04;21.52;;;14.52;;
64907;SDS011;69061;52.236;5.188;2023-08-24T11:30:34;23.17;;;13.93;;
64907;SDS011;69061;52.236;5.188;2023-08-24T11:33:01;22.70;;;13.88;;
64907;SDS011;69061;52.236;5.188;2023-08-24T11:35:29;24.30;;;14.88;;
64907;SDS011;69061;52.236;5.188;2023-08-24T11:38:03;22.33;;;14.85;;
64907;SDS011;69061;52.236;5.188;2023-08-24T11:40:30;21.05;;;14.65;;
64907;SDS011;69061;52.236;5.188;2023-08-24T11:42:57;17.40;;;13.63;;
64907;SDS011;69061;52.236;5.188;2023-08-24T11:45:23;24.35;;;13.60;;
64907;SDS011;69061;52.236;5.188;2023-08-24T11:47:56;21.15;;;13.50;;
64907;SDS011;69061;52.236;5.188;2023-08-24T11:50:25;21.55;;;14.23;;
64907;SDS011;69061;52.236;5.188;2023-08-24T11:52:52;24.40;;;15.90;;
64907;SDS011;69061;52.236;5.188;2023-08-24T11:55:22;20.58;;;14.30;;
64907;SDS011;69061;52.236;5.188;2023-08-24T11:57:48;31.05;;;18.45;;
64907;SDS011;69061;52.236;5.188;2023-08-24T12:00:15;33.88;;;21.27;;
64907;SDS011;69061;52.236;5.188;2023-08-24T12:02:43;32.28;;;21.33;;
64907;SDS011;69061;52.236;5.188;2023-08-24T12:05:19;34.40;;;22.13;;
64907;SDS011;69061;52.236;5.188;2023-08-24T12:07:47;33.47;;;22.58;;
64907;SDS011;69061;52.236;5.188;2023-08-24T12:10:14;31.25;;;21.83;;
64907;SDS011;69061;52.236;5.188;2023-08-24T12:12:42;32.58;;;21.60;;
64907;SDS011;69061;52.236;5.188;2023-08-24T12:15:14;33.22;;;21.83;;
64907;SDS011;69061;52.236;5.188;2023-08-24T12:17:43;28.10;;;20.77;;
64907;SDS011;69061;52.236;5.188;2023-08-24T12:20:16;31.77;;;23.05;;
64907;SDS011;69061;52.236;5.188;2023-08-24T12:22:49;29.45;;;21.77;;
64907;SDS011;69061;52.236;5.188;2023-08-24T12:25:17;27.17;;;22.83;;
64907;SDS011;69061;52.236;5.188;2023-08-24T12:27:46;32.33;;;23.85;;
64907;SDS011;69061;52.236;5.188;2023-08-24T12:30:13;32.22;;;22.95;;
64907;SDS011;69061;52.236;5.188;2023-08-24T12:32:43;30.33;;;23.23;;
64907;SDS011;69061;52.236;5.188;2023-08-24T12:35:10;38.40;;;22.90;;
64907;SDS011;69061;52.236;5.188;2023-08-24T12:37:37;34.83;;;24.05;;
64907;SDS011;69061;52.236;5.188;2023-08-24T12:40:06;30.73;;;22.13;;
64907;SDS011;69061;52.236;5.188;2023-08-24T12:42:33;29.58;;;23.38;;
64907;SDS011;69061;52.236;5.188;2023-08-24T12:45:04;35.55;;;23.73;;
64907;SDS011;69061;52.236;5.188;2023-08-24T12:47:33;30.70;;;22.02;;
64907;SDS011;69061;52.236;5.188;2023-08-24T12:50:03;30.08;;;23.30;;
64907;SDS011;69061;52.236;5.188;2023-08-24T12:52:31;30.58;;;22.83;;
64907;SDS011;69061;52.236;5.188;2023-08-24T12:54:59;31.58;;;21.85;;
64907;SDS011;69061;52.236;5.188;2023-08-24T12:57:25;31.58;;;22.80;;
64907;SDS011;69061;52.236;5.188;2023-08-24T12:59:52;34.40;;;22.80;;
64907;SDS011;69061;52.236;5.188;2023-08-24T13:02:24;34.22;;;22.73;;
64907;SDS011;69061;52.236;5.188;2023-08-24T13:04:51;34.88;;;22.95;;
64907;SDS011;69061;52.236;5.188;2023-08-24T13:07:18;26.45;;;20.65;;
64907;SDS011;69061;52.236;5.188;2023-08-24T13:09:47;28.42;;;19.88;;
64907;SDS011;69061;52.236;5.188;2023-08-24T13:12:14;31.77;;;20.55;;
64907;SDS011;69061;52.236;5.188;2023-08-24T13:14:41;33.65;;;21.65;;
64907;SDS011;69061;52.236;5.188;2023-08-24T13:17:08;28.50;;;21.20;;
64907;SDS011;69061;52.236;5.188;2023-08-24T13:19:36;29.77;;;20.77;;
64907;SDS011;69061;52.236;5.188;2023-08-24T13:22:03;33.38;;;22.58;;
64907;SDS011;69061;52.236;5.188;2023-08-24T13:24:31;32.53;;;21.27;;
64907;SDS011;69061;52.236;5.188;2023-08-24T13:26:58;25.55;;;20.80;;
64907;SDS011;69061;52.236;5.188;2023-08-24T13:29:25;30.08;;;20.73;;
64907;SDS011;69061;52.236;5.188;2023-08-24T13:31:55;33.78;;;21.38;;
64907;SDS011;69061;52.236;5.188;2023-08-24T13:34:21;29.17;;;20.70;;
64907;SDS011;69061;52.236;5.188;2023-08-24T13:36:50;29.60;;;20.92;;
64907;SDS011;69061;52.236;5.188;2023-08-24T13:39:18;31.65;;;21.23;;
64907;SDS011;69061;52.236;5.188;2023-08-24T13:41:46;28.48;;;21.58;;
64907;SDS011;69061;52.236;5.188;2023-08-24T13:44:13;31.67;;;21.63;;
64907;SDS011;69061;52.236;5.188;2023-08-24T13:46:40;27.73;;;20.77;;
64907;SDS011;69061;52.236;5.188;2023-08-24T13:49:06;31.23;;;21.85;;
64907;SDS011;69061;52.236;5.188;2023-08-24T13:51:33;29.88;;;20.10;;
64907;SDS011;69061;52.236;5.188;2023-08-24T13:54:02;30.15;;;20.50;;
64907;SDS011;69061;52.236;5.188;2023-08-24T13:56:29;31.85;;;21.17;;
64907;SDS011;69061;52.236;5.188;2023-08-24T13:58:56;32.70;;;23.33;;
64907;SDS011;69061;52.236;5.188;2023-08-24T14:01:24;33.25;;;22.58;;
64907;SDS011;69061;52.236;5.188;2023-08-24T14:03:51;27.67;;;20.45;;
64907;SDS011;69061;52.236;5.188;2023-08-24T14:06:17;31.20;;;21.25;;
64907;SDS011;69061;52.236;5.188;2023-08-24T14:08:44;30.15;;;21.13;;
64907;SDS011;69061;52.236;5.188;2023-08-24T14:11:12;28.08;;;20.80;;
64907;SDS011;69061;52.236;5.188;2023-08-24T14:13:40;30.13;;;21.98;;
64907;SDS011;69061;52.236;5.188;2023-08-24T14:16:09;38.33;;;23.63;;
64907;SDS011;69061;52.236;5.188;2023-08-24T14:18:37;37.45;;;25.23;;
64907;SDS011;69061;52.236;5.188;2023-08-24T14:21:05;30.92;;;22.27;;
64907;SDS011;69061;52.236;5.188;2023-08-24T14:23:32;31.52;;;21.20;;
64907;SDS011;69061;52.236;5.188;2023-08-24T14:25:58;27.48;;;22.63;;
64907;SDS011;69061;52.236;5.188;2023-08-24T14:28:30;30.85;;;22.88;;
64907;SDS011;69061;52.236;5.188;2023-08-24T14:31:14;26.20;;;20.27;;
64907;SDS011;69061;52.236;5.188;2023-08-24T14:33:41;30.58;;;20.02;;
64907;SDS011;69061;52.236;5.188;2023-08-24T14:36:08;25.35;;;17.08;;